sensor_id;sensor_type;location;lat;lon;timestamp;temperature;humidity
38592;DHT22;24356;48.460;11.450;2023-02-03T00:01:55;3.40;94.10
38592;DHT22;24356;48.460;11.450;2023-02-03T00:04:20;3.40;94.10
38592;DHT22;24356;48.460;11.450;2023-02-03T00:06:46;3.30;94.00
38592;DHT22;24356;48.460;11.450;2023-02-03T00:09:12;3.30;94.10
38592;DHT22;24356;48.460;11.450;2023-02-03T00:11:38;3.30;94.10
38592;DHT22;24356;48.460;11.450;2023-02-03T00:14:03;3.30;94.10
38592;DHT22;24356;48.460;11.450;2023-02-03T00:16:30;3.30;94.10
38592;DHT22;24356;48.460;11.450;2023-02-03T00:18:55;3.30;94.10
38592;DHT22;24356;48.460;11.450;2023-02-03T00:21:21;3.30;94.20
38592;DHT22;24356;48.460;11.450;2023-02-03T00:23:46;3.30;94.20
38592;DHT22;24356;48.460;11.450;2023-02-03T00:26:14;3.30;94.20
38592;DHT22;24356;48.460;11.450;2023-02-03T00:28:40;3.30;94.10
38592;DHT22;24356;48.460;11.450;2023-02-03T00:31:14;3.30;94.00
38592;DHT22;24356;48.460;11.450;2023-02-03T00:33:40;3.30;94.20
38592;DHT22;24356;48.460;11.450;2023-02-03T00:36:06;3.30;94.00
38592;DHT22;24356;48.460;11.450;2023-02-03T00:38:32;3.30;94.20
38592;DHT22;24356;48.460;11.450;2023-02-03T00:40:57;3.30;94.20
38592;DHT22;24356;48.460;11.450;2023-02-03T00:43:23;3.30;94.00
38592;DHT22;24356;48.460;11.450;2023-02-03T00:45:49;3.30;94.10
38592;DHT22;24356;48.460;11.450;2023-02-03T00:48:14;3.30;94.20
38592;DHT22;24356;48.460;11.450;2023-02-03T00:50:40;3.30;94.20
38592;DHT22;24356;48.460;11.450;2023-02-03T00:53:06;3.30;94.30
38592;DHT22;24356;48.460;11.450;2023-02-03T00:55:31;3.30;94.20
38592;DHT22;24356;48.460;11.450;2023-02-03T00:57:57;3.30;94.30
38592;DHT22;24356;48.460;11.450;2023-02-03T01:00:22;3.30;94.00
38592;DHT22;24356;48.460;11.450;2023-02-03T01:02:48;3.30;94.00
38592;DHT22;24356;48.460;11.450;2023-02-03T01:05:14;3.30;93.90
38592;DHT22;24356;48.460;11.450;2023-02-03T01:07:39;3.30;94.30
38592;DHT22;24356;48.460;11.450;2023-02-03T01:10:06;3.30;94.20
38592;DHT22;24356;48.460;11.450;2023-02-03T01:12:32;3.30;94.30
38592;DHT22;24356;48.460;11.450;2023-02-03T01:14:58;3.30;94.10
38592;DHT22;24356;48.460;11.450;2023-02-03T01:17:23;3.30;94.10
38592;DHT22;24356;48.460;11.450;2023-02-03T01:19:50;3.30;94.10
38592;DHT22;24356;48.460;11.450;2023-02-03T01:22:16;3.30;94.10
38592;DHT22;24356;48.460;11.450;2023-02-03T01:24:41;3.30;94.00
38592;DHT22;24356;48.460;11.450;2023-02-03T01:27:07;3.30;94.10
38592;DHT22;24356;48.460;11.450;2023-02-03T01:29:33;3.30;94.00
38592;DHT22;24356;48.460;11.450;2023-02-03T01:31:58;3.30;94.00
38592;DHT22;24356;48.460;11.450;2023-02-03T01:34:24;3.30;94.00
38592;DHT22;24356;48.460;11.450;2023-02-03T01:36:50;3.30;94.10
38592;DHT22;24356;48.460;11.450;2023-02-03T01:39:16;3.30;94.10
38592;DHT22;24356;48.460;11.450;2023-02-03T01:41:42;3.30;94.10
38592;DHT22;24356;48.460;11.450;2023-02-03T01:44:34;3.30;94.10
38592;DHT22;24356;48.460;11.450;2023-02-03T01:47:00;3.30;94.00
38592;DHT22;24356;48.460;11.450;2023-02-03T01:49:32;3.30;94.20
38592;DHT22;24356;48.460;11.450;2023-02-03T01:51:59;3.30;94.10
38592;DHT22;24356;48.460;11.450;2023-02-03T01:54:28;3.30;94.00
38592;DHT22;24356;48.460;11.450;2023-02-03T01:56:58;3.30;93.90
38592;DHT22;24356;48.460;11.450;2023-02-03T01:59:25;3.30;94.00
38592;DHT22;24356;48.460;11.450;2023-02-03T02:01:52;3.30;94.20
38592;DHT22;24356;48.460;11.450;2023-02-03T02:04:19;3.30;93.90
38592;DHT22;24356;48.460;11.450;2023-02-03T02:06:45;3.30;94.20
38592;DHT22;24356;48.460;11.450;2023-02-03T02:09:13;3.30;94.10
38592;DHT22;24356;48.460;11.450;2023-02-03T02:11:38;3.30;93.90
38592;DHT22;24356;48.460;11.450;2023-02-03T02:14:04;3.30;94.00
38592;DHT22;24356;48.460;11.450;2023-02-03T02:19:21;3.30;94.00
38592;DHT22;24356;48.460;11.450;2023-02-03T02:22:21;3.30;94.00
38592;DHT22;24356;48.460;11.450;2023-02-03T02:34:12;3.30;94.10
38592;DHT22;24356;48.460;11.450;2023-02-03T02:39:25;3.30;94.10
38592;DHT22;24356;48.460;11.450;2023-02-03T02:42:08;3.30;94.00
38592;DHT22;24356;48.460;11.450;2023-02-03T02:44:41;3.30;94.00
38592;DHT22;24356;48.460;11.450;2023-02-03T02:47:19;3.40;94.00
38592;DHT22;24356;48.460;11.450;2023-02-03T02:50:05;3.40;93.90
38592;DHT22;24356;48.460;11.450;2023-02-03T02:52:39;3.40;93.90
38592;DHT22;24356;48.460;11.450;2023-02-03T02:55:11;3.40;93.80
38592;DHT22;24356;48.460;11.450;2023-02-03T02:57:39;3.40;93.90
38592;DHT22;24356;48.460;11.450;2023-02-03T03:00:06;3.40;93.70
38592;DHT22;24356;48.460;11.450;2023-02-03T03:02:34;3.40;94.00
38592;DHT22;24356;48.460;11.450;2023-02-03T03:05:04;3.40;93.80
38592;DHT22;24356;48.460;11.450;2023-02-03T03:07:34;3.30;93.90
38592;DHT22;24356;48.460;11.450;2023-02-03T03:10:07;3.40;93.70
38592;DHT22;24356;48.460;11.450;2023-02-03T03:12:36;3.40;93.70
38592;DHT22;24356;48.460;11.450;2023-02-03T03:15:14;3.40;93.80
38592;DHT22;24356;48.460;11.450;2023-02-03T03:17:53;3.30;93.90
38592;DHT22;24356;48.460;11.450;2023-02-03T03:20:22;3.30;93.90
38592;DHT22;24356;48.460;11.450;2023-02-03T03:23:29;3.40;93.90
38592;DHT22;24356;48.460;11.450;2023-02-03T03:25:50;3.40;93.80
38592;DHT22;24356;48.460;11.450;2023-02-03T03:28:28;3.40;93.80
38592;DHT22;24356;48.460;11.450;2023-02-03T03:30:56;3.40;93.80
38592;DHT22;24356;48.460;11.450;2023-02-03T03:33:22;3.40;93.70
38592;DHT22;24356;48.460;11.450;2023-02-03T03:35:51;3.40;93.70
38592;DHT22;24356;48.460;11.450;2023-02-03T03:38:24;3.40;93.50
38592;DHT22;24356;48.460;11.450;2023-02-03T03:41:05;3.40;93.70
38592;DHT22;24356;48.460;11.450;2023-02-03T03:43:37;3.40;93.80
38592;DHT22;24356;48.460;11.450;2023-02-03T03:48:53;3.40;93.80
38592;DHT22;24356;48.460;11.450;2023-02-03T03:51:45;3.40;93.70
38592;DHT22;24356;48.460;11.450;2023-02-03T03:54:15;3.40;93.50
38592;DHT22;24356;48.460;11.450;2023-02-03T03:56:54;3.40;93.50
38592;DHT22;24356;48.460;11.450;2023-02-03T03:59:24;3.40;93.60
38592;DHT22;24356;48.460;11.450;2023-02-03T04:01:52;3.40;93.60
38592;DHT22;24356;48.460;11.450;2023-02-03T04:04:18;3.50;93.70
38592;DHT22;24356;48.460;11.450;2023-02-03T04:06:45;3.50;93.60
38592;DHT22;24356;48.460;11.450;2023-02-03T04:09:10;3.50;93.50
38592;DHT22;24356;48.460;11.450;2023-02-03T04:11:36;3.50;93.50
38592;DHT22;24356;48.460;11.450;2023-02-03T04:14:20;3.50;93.50
38592;DHT22;24356;48.460;11.450;2023-02-03T04:16:46;3.50;93.60
38592;DHT22;24356;48.460;11.450;2023-02-03T04:19:11;3.50;93.60
38592;DHT22;24356;48.460;11.450;2023-02-03T04:21:37;3.50;93.50
38592;DHT22;24356;48.460;11.450;2023-02-03T04:24:03;3.50;93.50
38592;DHT22;24356;48.460;11.450;2023-02-03T04:26:28;3.50;93.50
38592;DHT22;24356;48.460;11.450;2023-02-03T04:28:54;3.50;93.60
38592;DHT22;24356;48.460;11.450;2023-02-03T04:31:19;3.50;93.60
38592;DHT22;24356;48.460;11.450;2023-02-03T04:33:45;3.50;93.50
38592;DHT22;24356;48.460;11.450;2023-02-03T04:36:10;3.50;93.50
38592;DHT22;24356;48.460;11.450;2023-02-03T04:38:36;3.50;93.40
38592;DHT22;24356;48.460;11.450;2023-02-03T04:41:02;3.50;93.50
38592;DHT22;24356;48.460;11.450;2023-02-03T04:43:27;3.50;93.50
38592;DHT22;24356;48.460;11.450;2023-02-03T04:45:53;3.50;93.40
38592;DHT22;24356;48.460;11.450;2023-02-03T04:48:20;3.50;93.50
38592;DHT22;24356;48.460;11.450;2023-02-03T04:50:45;3.50;93.50
38592;DHT22;24356;48.460;11.450;2023-02-03T04:53:11;3.50;93.40
38592;DHT22;24356;48.460;11.450;2023-02-03T04:55:36;3.60;93.40
38592;DHT22;24356;48.460;11.450;2023-02-03T04:58:02;3.60;93.30
38592;DHT22;24356;48.460;11.450;2023-02-03T05:00:28;3.50;93.30
38592;DHT22;24356;48.460;11.450;2023-02-03T05:02:54;3.50;93.40
38592;DHT22;24356;48.460;11.450;2023-02-03T05:05:20;3.50;93.40
38592;DHT22;24356;48.460;11.450;2023-02-03T05:07:45;3.50;93.50
38592;DHT22;24356;48.460;11.450;2023-02-03T05:10:11;3.50;93.50
38592;DHT22;24356;48.460;11.450;2023-02-03T05:12:38;3.50;93.40
38592;DHT22;24356;48.460;11.450;2023-02-03T05:15:04;3.50;93.50
38592;DHT22;24356;48.460;11.450;2023-02-03T05:17:30;3.60;93.40
38592;DHT22;24356;48.460;11.450;2023-02-03T05:19:55;3.60;93.30
38592;DHT22;24356;48.460;11.450;2023-02-03T05:22:21;3.60;93.30
38592;DHT22;24356;48.460;11.450;2023-02-03T05:24:47;3.60;93.20
38592;DHT22;24356;48.460;11.450;2023-02-03T05:27:13;3.60;93.20
38592;DHT22;24356;48.460;11.450;2023-02-03T05:29:38;3.60;93.20
38592;DHT22;24356;48.460;11.450;2023-02-03T05:32:04;3.60;93.20
38592;DHT22;24356;48.460;11.450;2023-02-03T05:34:29;3.60;93.30
38592;DHT22;24356;48.460;11.450;2023-02-03T05:36:55;3.60;93.30
38592;DHT22;24356;48.460;11.450;2023-02-03T05:39:21;3.60;93.20
38592;DHT22;24356;48.460;11.450;2023-02-03T05:41:46;3.60;93.20
38592;DHT22;24356;48.460;11.450;2023-02-03T05:44:23;3.60;93.20
38592;DHT22;24356;48.460;11.450;2023-02-03T05:46:49;3.60;93.30
38592;DHT22;24356;48.460;11.450;2023-02-03T05:49:16;3.60;93.00
38592;DHT22;24356;48.460;11.450;2023-02-03T05:51:42;3.60;93.10
38592;DHT22;24356;48.460;11.450;2023-02-03T05:54:08;3.60;93.00
38592;DHT22;24356;48.460;11.450;2023-02-03T05:56:34;3.60;93.10
38592;DHT22;24356;48.460;11.450;2023-02-03T05:58:59;3.50;93.10
38592;DHT22;24356;48.460;11.450;2023-02-03T06:01:25;3.60;93.10
38592;DHT22;24356;48.460;11.450;2023-02-03T06:03:50;3.60;93.00
38592;DHT22;24356;48.460;11.450;2023-02-03T06:06:16;3.60;93.00
38592;DHT22;24356;48.460;11.450;2023-02-03T06:08:42;3.60;93.10
38592;DHT22;24356;48.460;11.450;2023-02-03T06:11:08;3.60;93.00
38592;DHT22;24356;48.460;11.450;2023-02-03T06:13:34;3.60;93.00
38592;DHT22;24356;48.460;11.450;2023-02-03T06:16:00;3.60;93.10
38592;DHT22;24356;48.460;11.450;2023-02-03T06:18:25;3.60;93.00
38592;DHT22;24356;48.460;11.450;2023-02-03T06:20:51;3.60;93.10
38592;DHT22;24356;48.460;11.450;2023-02-03T06:23:17;3.60;93.10
38592;DHT22;24356;48.460;11.450;2023-02-03T06:25:44;3.60;93.00
38592;DHT22;24356;48.460;11.450;2023-02-03T06:28:10;3.60;93.10
38592;DHT22;24356;48.460;11.450;2023-02-03T06:30:35;3.50;93.10
38592;DHT22;24356;48.460;11.450;2023-02-03T06:33:01;3.60;93.00
38592;DHT22;24356;48.460;11.450;2023-02-03T06:35:27;3.60;93.00
38592;DHT22;24356;48.460;11.450;2023-02-03T06:37:52;3.60;93.00
38592;DHT22;24356;48.460;11.450;2023-02-03T06:40:18;3.60;92.90
38592;DHT22;24356;48.460;11.450;2023-02-03T06:42:45;3.60;92.90
38592;DHT22;24356;48.460;11.450;2023-02-03T06:45:11;3.60;92.80
38592;DHT22;24356;48.460;11.450;2023-02-03T06:47:40;3.60;92.80
38592;DHT22;24356;48.460;11.450;2023-02-03T06:50:07;3.60;92.90
38592;DHT22;24356;48.460;11.450;2023-02-03T06:52:33;3.60;92.80
38592;DHT22;24356;48.460;11.450;2023-02-03T06:54:58;3.60;92.80
38592;DHT22;24356;48.460;11.450;2023-02-03T06:57:24;3.60;92.70
38592;DHT22;24356;48.460;11.450;2023-02-03T06:59:50;3.60;92.70
38592;DHT22;24356;48.460;11.450;2023-02-03T07:02:15;3.60;92.70
38592;DHT22;24356;48.460;11.450;2023-02-03T07:04:41;3.60;92.80
38592;DHT22;24356;48.460;11.450;2023-02-03T07:07:10;3.60;92.70
38592;DHT22;24356;48.460;11.450;2023-02-03T07:09:35;3.60;92.80
38592;DHT22;24356;48.460;11.450;2023-02-03T07:12:01;3.60;92.80
38592;DHT22;24356;48.460;11.450;2023-02-03T07:14:26;3.60;92.70
38592;DHT22;24356;48.460;11.450;2023-02-03T07:16:52;3.60;92.70
38592;DHT22;24356;48.460;11.450;2023-02-03T07:19:18;3.60;92.70
38592;DHT22;24356;48.460;11.450;2023-02-03T07:21:44;3.60;92.70
38592;DHT22;24356;48.460;11.450;2023-02-03T07:24:10;3.60;92.70
38592;DHT22;24356;48.460;11.450;2023-02-03T07:26:35;3.60;92.70
38592;DHT22;24356;48.460;11.450;2023-02-03T07:29:01;3.60;92.70
38592;DHT22;24356;48.460;11.450;2023-02-03T07:31:26;3.60;92.60
38592;DHT22;24356;48.460;11.450;2023-02-03T07:33:52;3.60;92.60
38592;DHT22;24356;48.460;11.450;2023-02-03T07:36:18;3.60;92.70
38592;DHT22;24356;48.460;11.450;2023-02-03T07:38:43;3.60;92.70
38592;DHT22;24356;48.460;11.450;2023-02-03T07:41:09;3.70;92.70
38592;DHT22;24356;48.460;11.450;2023-02-03T07:43:34;3.70;92.60
38592;DHT22;24356;48.460;11.450;2023-02-03T07:46:00;3.70;92.70
38592;DHT22;24356;48.460;11.450;2023-02-03T07:48:26;3.70;92.70
38592;DHT22;24356;48.460;11.450;2023-02-03T07:50:52;3.70;92.70
38592;DHT22;24356;48.460;11.450;2023-02-03T07:53:18;3.80;92.60
38592;DHT22;24356;48.460;11.450;2023-02-03T07:55:44;3.80;92.60
38592;DHT22;24356;48.460;11.450;2023-02-03T07:58:09;3.80;92.70
38592;DHT22;24356;48.460;11.450;2023-02-03T08:00:35;3.80;92.70
38592;DHT22;24356;48.460;11.450;2023-02-03T08:03:00;3.80;92.50
38592;DHT22;24356;48.460;11.450;2023-02-03T08:05:26;3.80;92.50
38592;DHT22;24356;48.460;11.450;2023-02-03T08:07:52;3.90;92.50
38592;DHT22;24356;48.460;11.450;2023-02-03T08:10:17;3.90;92.50
38592;DHT22;24356;48.460;11.450;2023-02-03T08:12:43;3.90;92.60
38592;DHT22;24356;48.460;11.450;2023-02-03T08:15:11;3.90;92.50
38592;DHT22;24356;48.460;11.450;2023-02-03T08:17:37;4.00;92.50
38592;DHT22;24356;48.460;11.450;2023-02-03T08:20:07;4.00;92.50
38592;DHT22;24356;48.460;11.450;2023-02-03T08:22:33;4.00;92.40
38592;DHT22;24356;48.460;11.450;2023-02-03T08:24:59;4.00;92.40
38592;DHT22;24356;48.460;11.450;2023-02-03T08:27:24;4.00;92.40
38592;DHT22;24356;48.460;11.450;2023-02-03T08:29:50;4.00;92.40
38592;DHT22;24356;48.460;11.450;2023-02-03T08:32:18;4.00;92.40
38592;DHT22;24356;48.460;11.450;2023-02-03T08:34:44;4.10;92.40
38592;DHT22;24356;48.460;11.450;2023-02-03T08:37:11;4.10;92.00
38592;DHT22;24356;48.460;11.450;2023-02-03T08:39:37;4.10;92.10
38592;DHT22;24356;48.460;11.450;2023-02-03T08:42:04;4.10;92.10
38592;DHT22;24356;48.460;11.450;2023-02-03T08:44:31;4.10;92.10
38592;DHT22;24356;48.460;11.450;2023-02-03T08:46:57;4.10;92.10
38592;DHT22;24356;48.460;11.450;2023-02-03T08:49:26;4.20;92.00
38592;DHT22;24356;48.460;11.450;2023-02-03T08:51:52;4.20;92.10
38592;DHT22;24356;48.460;11.450;2023-02-03T08:54:18;4.20;92.10
38592;DHT22;24356;48.460;11.450;2023-02-03T08:56:44;4.20;92.00
38592;DHT22;24356;48.460;11.450;2023-02-03T08:59:11;4.20;92.10
38592;DHT22;24356;48.460;11.450;2023-02-03T09:01:37;4.20;91.90
38592;DHT22;24356;48.460;11.450;2023-02-03T09:04:05;4.30;91.90
38592;DHT22;24356;48.460;11.450;2023-02-03T09:06:33;4.30;91.70
38592;DHT22;24356;48.460;11.450;2023-02-03T09:09:00;4.30;91.80
38592;DHT22;24356;48.460;11.450;2023-02-03T09:11:25;4.30;92.00
38592;DHT22;24356;48.460;11.450;2023-02-03T09:13:51;4.30;91.70
38592;DHT22;24356;48.460;11.450;2023-02-03T09:16:17;4.30;91.90
38592;DHT22;24356;48.460;11.450;2023-02-03T09:18:45;4.40;91.90
38592;DHT22;24356;48.460;11.450;2023-02-03T09:21:12;4.40;91.90
38592;DHT22;24356;48.460;11.450;2023-02-03T09:23:39;4.40;91.80
38592;DHT22;24356;48.460;11.450;2023-02-03T09:26:07;4.40;91.70
38592;DHT22;24356;48.460;11.450;2023-02-03T09:28:34;4.40;91.70
38592;DHT22;24356;48.460;11.450;2023-02-03T09:31:07;4.40;91.70
38592;DHT22;24356;48.460;11.450;2023-02-03T09:33:33;4.50;91.40
38592;DHT22;24356;48.460;11.450;2023-02-03T09:35:59;4.50;91.50
38592;DHT22;24356;48.460;11.450;2023-02-03T09:38:25;4.50;91.50
38592;DHT22;24356;48.460;11.450;2023-02-03T09:46:24;4.60;91.50
38592;DHT22;24356;48.460;11.450;2023-02-03T09:48:58;4.60;91.50
38592;DHT22;24356;48.460;11.450;2023-02-03T09:51:49;4.60;91.30
38592;DHT22;24356;48.460;11.450;2023-02-03T09:54:39;4.70;91.40
38592;DHT22;24356;48.460;11.450;2023-02-03T09:57:14;4.70;91.50
38592;DHT22;24356;48.460;11.450;2023-02-03T09:59:42;4.80;91.30
38592;DHT22;24356;48.460;11.450;2023-02-03T10:05:17;4.80;91.40
38592;DHT22;24356;48.460;11.450;2023-02-03T10:10:57;4.90;91.30
38592;DHT22;24356;48.460;11.450;2023-02-03T10:14:01;4.90;91.20
38592;DHT22;24356;48.460;11.450;2023-02-03T10:19:02;4.90;91.20
38592;DHT22;24356;48.460;11.450;2023-02-03T10:21:46;4.90;91.00
38592;DHT22;24356;48.460;11.450;2023-02-03T10:24:18;4.90;90.90
38592;DHT22;24356;48.460;11.450;2023-02-03T10:26:45;4.90;91.00
38592;DHT22;24356;48.460;11.450;2023-02-03T10:29:20;5.00;91.10
38592;DHT22;24356;48.460;11.450;2023-02-03T10:31:47;5.00;91.00
38592;DHT22;24356;48.460;11.450;2023-02-03T10:34:15;5.00;91.00
38592;DHT22;24356;48.460;11.450;2023-02-03T10:37:01;5.00;90.80
38592;DHT22;24356;48.460;11.450;2023-02-03T10:42:08;5.10;90.80
38592;DHT22;24356;48.460;11.450;2023-02-03T10:44:42;5.10;91.00
38592;DHT22;24356;48.460;11.450;2023-02-03T10:47:35;5.10;90.90
38592;DHT22;24356;48.460;11.450;2023-02-03T10:50:14;5.20;91.00
38592;DHT22;24356;48.460;11.450;2023-02-03T10:52:40;5.20;91.00
38592;DHT22;24356;48.460;11.450;2023-02-03T10:55:26;5.30;90.90
38592;DHT22;24356;48.460;11.450;2023-02-03T10:57:55;5.30;90.90
38592;DHT22;24356;48.460;11.450;2023-02-03T11:00:30;5.40;90.60
38592;DHT22;24356;48.460;11.450;2023-02-03T11:03:25;5.40;90.50
38592;DHT22;24356;48.460;11.450;2023-02-03T11:08:33;5.50;90.40
38592;DHT22;24356;48.460;11.450;2023-02-03T11:11:08;5.50;90.50
38592;DHT22;24356;48.460;11.450;2023-02-03T11:13:34;5.50;90.60
38592;DHT22;24356;48.460;11.450;2023-02-03T11:16:15;5.60;90.50
38592;DHT22;24356;48.460;11.450;2023-02-03T11:21:21;5.60;90.50
38592;DHT22;24356;48.460;11.450;2023-02-03T11:26:19;5.70;90.50
38592;DHT22;24356;48.460;11.450;2023-02-03T11:28:47;5.70;90.50
38592;DHT22;24356;48.460;11.450;2023-02-03T11:31:23;5.80;90.70
38592;DHT22;24356;48.460;11.450;2023-02-03T11:34:01;5.80;90.20
38592;DHT22;24356;48.460;11.450;2023-02-03T11:36:30;5.80;90.50
38592;DHT22;24356;48.460;11.450;2023-02-03T11:39:17;5.80;90.10
38592;DHT22;24356;48.460;11.450;2023-02-03T11:41:46;5.80;90.10
38592;DHT22;24356;48.460;11.450;2023-02-03T11:44:18;5.90;90.10
38592;DHT22;24356;48.460;11.450;2023-02-03T11:46:47;5.90;89.90
38592;DHT22;24356;48.460;11.450;2023-02-03T11:49:38;5.90;89.80
38592;DHT22;24356;48.460;11.450;2023-02-03T11:58:32;5.90;87.70
38592;DHT22;24356;48.460;11.450;2023-02-03T12:04:19;6.00;89.20
38592;DHT22;24356;48.460;11.450;2023-02-03T12:06:45;6.00;89.50
38592;DHT22;24356;48.460;11.450;2023-02-03T12:28:20;6.20;89.70
38592;DHT22;24356;48.460;11.450;2023-02-03T12:31:44;6.20;89.60
38592;DHT22;24356;48.460;11.450;2023-02-03T12:39:31;6.20;89.00
38592;DHT22;24356;48.460;11.450;2023-02-03T12:42:12;6.20;89.20
38592;DHT22;24356;48.460;11.450;2023-02-03T12:44:44;6.20;89.10
38592;DHT22;24356;48.460;11.450;2023-02-03T12:50:22;6.20;89.10
38592;DHT22;24356;48.460;11.450;2023-02-03T12:53:15;6.20;89.10
38592;DHT22;24356;48.460;11.450;2023-02-03T12:55:49;6.30;88.70
38592;DHT22;24356;48.460;11.450;2023-02-03T12:58:40;6.30;88.90
38592;DHT22;24356;48.460;11.450;2023-02-03T13:01:14;6.30;88.90
38592;DHT22;24356;48.460;11.450;2023-02-03T13:03:47;6.30;88.90
38592;DHT22;24356;48.460;11.450;2023-02-03T13:09:12;6.30;88.80
38592;DHT22;24356;48.460;11.450;2023-02-03T13:14:27;6.30;88.80
38592;DHT22;24356;48.460;11.450;2023-02-03T13:17:17;6.30;88.70
38592;DHT22;24356;48.460;11.450;2023-02-03T13:19:48;6.30;88.80
38592;DHT22;24356;48.460;11.450;2023-02-03T13:22:16;6.30;89.00
38592;DHT22;24356;48.460;11.450;2023-02-03T13:24:48;6.30;88.80
38592;DHT22;24356;48.460;11.450;2023-02-03T13:30:29;6.30;88.60
38592;DHT22;24356;48.460;11.450;2023-02-03T13:35:54;6.20;88.50
38592;DHT22;24356;48.460;11.450;2023-02-03T13:39:04;6.30;88.70
38592;DHT22;24356;48.460;11.450;2023-02-03T13:44:03;6.20;88.70
38592;DHT22;24356;48.460;11.450;2023-02-03T13:46:32;6.20;88.50
38592;DHT22;24356;48.460;11.450;2023-02-03T13:49:01;6.20;88.30
38592;DHT22;24356;48.460;11.450;2023-02-03T13:51:41;6.20;88.50
38592;DHT22;24356;48.460;11.450;2023-02-03T13:54:32;6.10;88.70
38592;DHT22;24356;48.460;11.450;2023-02-03T13:57:19;6.10;88.70
38592;DHT22;24356;48.460;11.450;2023-02-03T13:59:46;6.10;88.50
38592;DHT22;24356;48.460;11.450;2023-02-03T14:04:56;6.10;88.40
38592;DHT22;24356;48.460;11.450;2023-02-03T14:07:32;6.00;88.40
38592;DHT22;24356;48.460;11.450;2023-02-03T14:12:37;6.00;88.40
38592;DHT22;24356;48.460;11.450;2023-02-03T14:18:03;6.00;88.50
38592;DHT22;24356;48.460;11.450;2023-02-03T14:20:37;6.00;88.40
38592;DHT22;24356;48.460;11.450;2023-02-03T14:25:30;6.00;88.60
38592;DHT22;24356;48.460;11.450;2023-02-03T14:28:06;5.90;88.60
38592;DHT22;24356;48.460;11.450;2023-02-03T14:30:33;5.90;88.30
38592;DHT22;24356;48.460;11.450;2023-02-03T14:33:18;5.90;88.60
38592;DHT22;24356;48.460;11.450;2023-02-03T14:35:52;5.90;88.50
38592;DHT22;24356;48.460;11.450;2023-02-03T14:38:18;5.90;88.50
38592;DHT22;24356;48.460;11.450;2023-02-03T14:40:58;5.80;88.50
38592;DHT22;24356;48.460;11.450;2023-02-03T14:43:49;5.80;88.70
38592;DHT22;24356;48.460;11.450;2023-02-03T14:52:40;5.80;88.70
38592;DHT22;24356;48.460;11.450;2023-02-03T14:57:52;5.80;88.80
38592;DHT22;24356;48.460;11.450;2023-02-03T15:00:26;5.80;88.80
38592;DHT22;24356;48.460;11.450;2023-02-03T15:08:43;5.80;88.80
38592;DHT22;24356;48.460;11.450;2023-02-03T15:11:26;5.80;88.60
38592;DHT22;24356;48.460;11.450;2023-02-03T15:13:54;5.80;88.70
38592;DHT22;24356;48.460;11.450;2023-02-03T15:16:23;5.80;88.80
38592;DHT22;24356;48.460;11.450;2023-02-03T15:18:55;5.70;88.90
38592;DHT22;24356;48.460;11.450;2023-02-03T15:21:21;5.70;88.90
38592;DHT22;24356;48.460;11.450;2023-02-03T15:23:47;5.70;88.90
38592;DHT22;24356;48.460;11.450;2023-02-03T15:26:20;5.70;88.90
38592;DHT22;24356;48.460;11.450;2023-02-03T15:29:00;5.70;88.90
38592;DHT22;24356;48.460;11.450;2023-02-03T15:31:37;5.70;88.90
38592;DHT22;24356;48.460;11.450;2023-02-03T15:34:33;5.70;88.90
38592;DHT22;24356;48.460;11.450;2023-02-03T15:37:05;5.70;88.00
38592;DHT22;24356;48.460;11.450;2023-02-03T15:42:42;5.80;88.30
38592;DHT22;24356;48.460;11.450;2023-02-03T15:45:31;5.80;88.50
38592;DHT22;24356;48.460;11.450;2023-02-03T15:50:35;5.80;88.50
38592;DHT22;24356;48.460;11.450;2023-02-03T15:53:19;5.80;88.50
38592;DHT22;24356;48.460;11.450;2023-02-03T15:55:51;5.70;88.60
38592;DHT22;24356;48.460;11.450;2023-02-03T15:58:28;5.70;88.60
38592;DHT22;24356;48.460;11.450;2023-02-03T16:01:02;5.60;88.30
38592;DHT22;24356;48.460;11.450;2023-02-03T16:03:33;5.60;88.30
38592;DHT22;24356;48.460;11.450;2023-02-03T16:06:22;5.60;88.50
38592;DHT22;24356;48.460;11.450;2023-02-03T16:08:50;5.60;88.80
38592;DHT22;24356;48.460;11.450;2023-02-03T16:11:36;5.60;88.70
38592;DHT22;24356;48.460;11.450;2023-02-03T16:14:05;5.60;88.90
38592;DHT22;24356;48.460;11.450;2023-02-03T16:16:50;5.60;89.00
38592;DHT22;24356;48.460;11.450;2023-02-03T16:19:20;5.50;89.20
38592;DHT22;24356;48.460;11.450;2023-02-03T16:24:37;5.50;89.30
38592;DHT22;24356;48.460;11.450;2023-02-03T16:27:30;5.50;89.40
38592;DHT22;24356;48.460;11.450;2023-02-03T16:33:17;5.50;89.60
38592;DHT22;24356;48.460;11.450;2023-02-03T16:36:10;5.40;89.70
38592;DHT22;24356;48.460;11.450;2023-02-03T16:38:55;5.40;89.90
38592;DHT22;24356;48.460;11.450;2023-02-03T16:41:41;5.30;90.10
38592;DHT22;24356;48.460;11.450;2023-02-03T16:44:25;5.30;90.40
38592;DHT22;24356;48.460;11.450;2023-02-03T16:47:24;5.30;90.30
38592;DHT22;24356;48.460;11.450;2023-02-03T16:50:19;5.30;90.40
38592;DHT22;24356;48.460;11.450;2023-02-03T16:53:03;5.30;90.60
38592;DHT22;24356;48.460;11.450;2023-02-03T16:55:30;5.20;91.00
38592;DHT22;24356;48.460;11.450;2023-02-03T16:57:55;5.20;90.70
38592;DHT22;24356;48.460;11.450;2023-02-03T17:00:23;5.20;90.70
38592;DHT22;24356;48.460;11.450;2023-02-03T17:02:49;5.20;90.70
38592;DHT22;24356;48.460;11.450;2023-02-03T17:05:16;5.20;90.80
38592;DHT22;24356;48.460;11.450;2023-02-03T17:07:42;5.10;91.00
38592;DHT22;24356;48.460;11.450;2023-02-03T17:10:08;5.10;90.90
38592;DHT22;24356;48.460;11.450;2023-02-03T17:12:34;5.00;91.20
38592;DHT22;24356;48.460;11.450;2023-02-03T17:15:06;5.00;91.20
38592;DHT22;24356;48.460;11.450;2023-02-03T17:17:31;5.00;91.10
38592;DHT22;24356;48.460;11.450;2023-02-03T17:19:58;5.00;91.00
38592;DHT22;24356;48.460;11.450;2023-02-03T17:22:25;5.00;91.00
38592;DHT22;24356;48.460;11.450;2023-02-03T17:24:51;5.00;91.10
38592;DHT22;24356;48.460;11.450;2023-02-03T17:27:18;5.00;91.00
38592;DHT22;24356;48.460;11.450;2023-02-03T17:29:44;4.90;91.20
38592;DHT22;24356;48.460;11.450;2023-02-03T17:32:09;5.00;91.30
38592;DHT22;24356;48.460;11.450;2023-02-03T17:34:39;4.90;91.20
38592;DHT22;24356;48.460;11.450;2023-02-03T17:37:06;4.90;91.50
38592;DHT22;24356;48.460;11.450;2023-02-03T17:39:33;4.90;91.30
38592;DHT22;24356;48.460;11.450;2023-02-03T17:42:03;4.90;91.30
38592;DHT22;24356;48.460;11.450;2023-02-03T17:44:29;4.90;91.30
38592;DHT22;24356;48.460;11.450;2023-02-03T17:46:55;4.90;91.30
38592;DHT22;24356;48.460;11.450;2023-02-03T17:49:20;4.80;91.60
38592;DHT22;24356;48.460;11.450;2023-02-03T17:51:46;4.90;91.50
38592;DHT22;24356;48.460;11.450;2023-02-03T17:54:11;4.90;91.50
38592;DHT22;24356;48.460;11.450;2023-02-03T17:56:37;4.80;91.60
38592;DHT22;24356;48.460;11.450;2023-02-03T17:59:04;4.80;91.50
38592;DHT22;24356;48.460;11.450;2023-02-03T18:01:30;4.80;91.60